createdAt,value
2019-02-21T00:01:24.273Z,3.73
2019-02-21T00:03:53.420Z,3.69
2019-02-21T00:06:22.521Z,3.69
2019-02-21T00:08:51.689Z,3.60
2019-02-21T00:11:20.791Z,3.53
2019-02-21T00:13:49.941Z,3.52
2019-02-21T00:16:19.086Z,3.75
2019-02-21T00:18:48.235Z,3.62
2019-02-21T00:21:17.436Z,3.50
2019-02-21T00:23:46.545Z,3.52
2019-02-21T00:26:15.859Z,3.55
2019-02-21T00:28:45.027Z,3.60
2019-02-21T00:31:14.203Z,3.49
2019-02-21T00:33:43.701Z,3.53
2019-02-21T00:36:12.859Z,3.61
2019-02-21T00:38:41.953Z,3.55
2019-02-21T00:41:11.130Z,3.56
2019-02-21T00:43:41.097Z,3.63
2019-02-21T00:46:10.188Z,3.66
2019-02-21T00:48:39.285Z,3.74
2019-02-21T00:51:08.449Z,3.60
2019-02-21T00:53:37.616Z,3.45
2019-02-21T00:56:06.786Z,3.51
2019-02-21T00:58:35.940Z,3.42
2019-02-21T01:01:05.543Z,3.47
2019-02-21T01:03:34.697Z,3.51
2019-02-21T01:06:03.810Z,3.50
2019-02-21T01:08:32.946Z,3.43
2019-02-21T01:11:02.104Z,3.40
2019-02-21T01:13:31.237Z,3.49
2019-02-21T01:16:00.380Z,3.41
2019-02-21T01:18:29.531Z,3.46
2019-02-21T01:20:58.685Z,3.39
2019-02-21T01:23:28.061Z,3.36
2019-02-21T01:25:57.223Z,3.38
2019-02-21T01:28:26.357Z,3.29
2019-02-21T01:30:57.193Z,3.31
2019-02-21T01:33:26.355Z,3.27
2019-02-21T01:35:55.512Z,3.37
2019-02-21T01:38:24.613Z,3.26
2019-02-21T01:40:54.145Z,3.24
2019-02-21T01:43:23.353Z,3.40
2019-02-21T01:45:52.499Z,3.18
2019-02-21T01:48:22.001Z,3.28
2019-02-21T01:50:51.175Z,3.38
2019-02-21T01:53:20.321Z,3.32
2019-02-21T01:55:49.423Z,3.28
2019-02-21T01:58:18.739Z,3.43
2019-02-21T02:00:47.875Z,3.27
2019-02-21T02:03:17.013Z,3.29
2019-02-21T02:05:46.122Z,3.40
2019-02-21T02:08:15.281Z,3.49
2019-02-21T02:10:44.715Z,3.43
2019-02-21T02:13:24.218Z,3.55
2019-02-21T02:15:44.711Z,3.39
2019-02-21T02:18:14.177Z,3.35
2019-02-21T02:20:43.300Z,3.46
2019-02-21T02:23:12.418Z,3.40
2019-02-21T02:25:41.912Z,3.48
2019-02-21T02:28:11.016Z,3.42
2019-02-21T02:30:40.180Z,3.45
2019-02-21T02:33:09.368Z,3.40
2019-02-21T02:35:38.536Z,3.51
2019-02-21T02:38:07.631Z,3.43
2019-02-21T02:40:36.781Z,3.46
2019-02-21T02:43:05.895Z,3.42
2019-02-21T02:45:35.031Z,3.47
2019-02-21T02:48:04.174Z,3.46
2019-02-21T02:50:33.675Z,3.55
2019-02-21T02:53:02.826Z,3.52
2019-02-21T02:55:31.961Z,3.52
2019-02-21T02:58:01.115Z,3.53
2019-02-21T03:00:30.255Z,3.67
2019-02-21T03:02:59.443Z,3.71
2019-02-21T03:05:28.608Z,3.87
2019-02-21T03:07:57.698Z,4.18
2019-02-21T03:10:26.850Z,4.21
2019-02-21T03:12:55.979Z,4.12
2019-02-21T03:15:25.120Z,4.06
2019-02-21T03:17:54.218Z,4.20
2019-02-21T03:20:23.374Z,4.23
2019-02-21T03:22:52.495Z,4.32
2019-02-21T03:25:21.658Z,4.38
2019-02-21T03:27:50.775Z,4.43
2019-02-21T03:30:19.912Z,4.71
2019-02-21T03:32:49.024Z,4.99
2019-02-21T03:35:18.162Z,5.08
2019-02-21T03:37:47.266Z,5.23
2019-02-21T03:40:16.444Z,5.20
2019-02-21T03:42:45.552Z,5.36
2019-02-21T03:45:14.797Z,5.59
2019-02-21T03:47:43.947Z,5.61
2019-02-21T03:50:13.625Z,5.66
2019-02-21T03:52:42.766Z,5.87
2019-02-21T03:55:11.897Z,5.76
2019-02-21T03:57:41.049Z,5.87
2019-02-21T04:00:10.289Z,5.89
2019-02-21T04:02:39.513Z,5.85
2019-02-21T04:05:08.851Z,5.91
2019-02-21T04:07:38.010Z,5.93
2019-02-21T04:10:07.424Z,6.03
2019-02-21T04:12:36.568Z,6.10
2019-02-21T04:15:06.122Z,5.97
2019-02-21T04:17:35.318Z,6.14
2019-02-21T04:20:04.609Z,6.08
2019-02-21T04:22:33.737Z,6.10
2019-02-21T04:25:02.915Z,6.18
2019-02-21T04:27:32.099Z,6.17
2019-02-21T04:30:01.223Z,6.17
2019-02-21T04:32:30.364Z,6.19
2019-02-21T04:34:59.478Z,6.19
2019-02-21T04:37:28.627Z,6.21
2019-02-21T04:39:57.843Z,6.37
2019-02-21T04:42:26.999Z,6.32
2019-02-21T04:44:56.116Z,6.29
2019-02-21T04:47:25.620Z,6.41
2019-02-21T04:49:54.735Z,6.21
2019-02-21T04:52:23.967Z,6.24
2019-02-21T04:54:53.643Z,6.20
2019-02-21T04:57:22.818Z,6.30
2019-02-21T04:59:51.928Z,6.26
2019-02-21T05:02:29.260Z,6.24
2019-02-21T05:04:51.906Z,6.18
2019-02-21T05:07:21.048Z,6.09
2019-02-21T05:09:58.060Z,6.07
2019-02-21T05:12:21.413Z,5.91
2019-02-21T05:14:50.628Z,5.78
2019-02-21T05:17:19.776Z,5.70
2019-02-21T05:19:48.887Z,5.67
2019-02-21T05:22:18.270Z,5.56
2019-02-21T05:24:47.386Z,5.29
2019-02-21T05:27:20.271Z,5.22
2019-02-21T05:29:49.762Z,5.10
2019-02-21T05:32:41.198Z,5.06
2019-02-21T05:35:31.128Z,5.02
2019-02-21T05:38:09.167Z,4.96
2019-02-21T05:40:48.766Z,4.95
2019-02-21T05:43:37.362Z,4.99
2019-02-21T05:46:37.940Z,4.91
2019-02-21T05:49:22.185Z,4.98
2019-02-21T05:52:05.715Z,4.91
2019-02-21T05:54:53.487Z,4.88
2019-02-21T05:57:40.431Z,4.89
2019-02-21T06:00:36.886Z,4.91
2019-02-21T06:03:24.587Z,4.81
2019-02-21T06:06:18.499Z,4.83
2019-02-21T06:09:00.265Z,4.76
2019-02-21T06:11:47.075Z,4.70
2019-02-21T06:14:38.302Z,4.72
2019-02-21T06:17:24.358Z,4.82
2019-02-21T06:19:59.707Z,4.99
2019-02-21T06:22:41.060Z,5.11
2019-02-21T06:25:30.605Z,5.14
2019-02-21T06:28:05.254Z,5.21
2019-02-21T06:30:44.218Z,5.27
2019-02-21T06:33:13.378Z,5.23
2019-02-21T06:35:43.014Z,5.24
2019-02-21T06:38:12.143Z,5.23
2019-02-21T06:40:41.242Z,5.11
2019-02-21T06:43:10.667Z,5.01
2019-02-21T06:45:39.831Z,4.98
2019-02-21T06:48:09.401Z,5.02
2019-02-21T06:50:38.553Z,5.09
2019-02-21T06:53:08.141Z,5.11
2019-02-21T06:55:37.408Z,5.29
2019-02-21T06:58:06.548Z,5.38
2019-02-21T07:00:35.709Z,5.64
2019-02-21T07:03:15.109Z,5.61
2019-02-21T07:05:37.004Z,5.58
2019-02-21T07:08:08.741Z,5.51
2019-02-21T07:10:37.378Z,5.62
2019-02-21T07:13:06.507Z,5.71
2019-02-21T07:15:35.739Z,5.71
2019-02-21T07:18:04.914Z,5.87
2019-02-21T07:20:34.037Z,5.87
2019-02-21T07:23:03.190Z,5.98
2019-02-21T07:25:39.452Z,6.08
2019-02-21T07:28:11.650Z,6.08
2019-02-21T07:30:39.674Z,6.19
2019-02-21T07:33:08.850Z,6.21
2019-02-21T07:35:38.630Z,6.09
2019-02-21T07:38:07.759Z,6.19
2019-02-21T07:40:36.875Z,6.18
2019-02-21T07:43:06.021Z,6.26
2019-02-21T07:45:36.304Z,6.15
2019-02-21T07:48:05.745Z,6.25
2019-02-21T07:50:35.005Z,6.16
2019-02-21T07:53:04.448Z,6.19
2019-02-21T07:55:33.580Z,6.25
2019-02-21T07:58:03.979Z,6.39
2019-02-21T08:00:33.344Z,6.46
2019-02-21T08:03:02.483Z,6.42
2019-02-21T08:05:31.992Z,6.34
2019-02-21T08:08:01.105Z,6.42
2019-02-21T08:10:33.507Z,6.44
2019-02-21T08:13:01.167Z,6.42
2019-02-21T08:15:30.490Z,6.48
2019-02-21T08:17:59.604Z,6.48
2019-02-21T08:20:33.990Z,6.44
2019-02-21T08:22:59.628Z,6.40
2019-02-21T08:25:28.877Z,6.45
2019-02-21T08:27:57.998Z,6.50
2019-02-21T08:30:29.169Z,6.57
2019-02-21T08:33:25.913Z,6.73
2019-02-21T08:35:57.732Z,6.69
2019-02-21T08:38:25.920Z,6.91
2019-02-21T08:40:57.067Z,7.06
2019-02-21T08:43:25.949Z,7.23
2019-02-21T08:45:57.448Z,7.28
2019-02-21T08:48:25.917Z,7.26
2019-02-21T08:50:55.101Z,7.29
2019-02-21T08:53:24.215Z,7.41
2019-02-21T08:55:55.889Z,7.46
2019-02-21T08:58:24.131Z,7.45
2019-02-21T09:00:54.470Z,7.51
2019-02-21T09:03:23.732Z,7.41
2019-02-21T09:05:52.873Z,7.43
2019-02-21T09:08:32.706Z,7.48
2019-02-21T09:10:52.846Z,7.63
2019-02-21T09:13:23.910Z,7.59
2019-02-21T09:15:52.814Z,7.40
2019-02-21T09:18:21.928Z,7.50
2019-02-21T09:20:50.996Z,7.75
2019-02-21T09:23:20.149Z,7.75
2019-02-21T09:25:49.688Z,7.78
2019-02-21T09:28:18.900Z,7.78
2019-02-21T09:30:47.981Z,7.63
2019-02-21T09:33:18.997Z,7.58
2019-02-21T09:35:47.953Z,7.74
2019-02-21T09:38:17.428Z,7.74
2019-02-21T09:40:46.554Z,7.81
2019-02-21T09:43:15.656Z,7.81
2019-02-21T09:45:44.782Z,7.71
2019-02-21T09:48:13.886Z,7.72
2019-02-21T09:50:43.053Z,7.73
2019-02-21T09:53:12.163Z,7.88
2019-02-21T09:55:41.288Z,7.82
2019-02-21T09:58:10.841Z,7.76
2019-02-21T10:00:39.980Z,8.03
2019-02-21T10:03:09.084Z,8.03
2019-02-21T10:05:38.221Z,7.88
2019-02-21T10:08:07.324Z,7.84
2019-02-21T10:10:36.567Z,7.90
2019-02-21T10:13:05.643Z,7.89
2019-02-21T10:15:34.813Z,7.99
2019-02-21T10:18:03.897Z,7.90
2019-02-21T10:20:33.052Z,7.85
2019-02-21T10:23:02.152Z,7.76
2019-02-21T10:25:31.401Z,7.88
2019-02-21T10:28:00.611Z,8.00
2019-02-21T10:30:29.741Z,8.04
2019-02-21T10:32:58.862Z,8.02
2019-02-21T10:35:27.991Z,8.10
2019-02-21T10:37:57.089Z,8.08
2019-02-21T10:40:26.198Z,8.16
2019-02-21T10:42:55.342Z,8.40
2019-02-21T10:45:24.899Z,8.36
2019-02-21T10:47:54.051Z,8.51
2019-02-21T10:50:23.311Z,8.67
2019-02-21T10:52:52.434Z,8.73
2019-02-21T10:55:21.539Z,8.73
2019-02-21T10:57:50.679Z,9.19
2019-02-21T11:00:22.337Z,9.19
2019-02-21T11:02:51.451Z,9.14
2019-02-21T11:05:20.549Z,8.98
2019-02-21T11:07:49.909Z,9.34
2019-02-21T11:10:22.151Z,9.29
2019-02-21T11:12:51.327Z,9.50
2019-02-21T11:15:21.170Z,9.30
2019-02-21T11:17:50.499Z,9.54
2019-02-21T11:20:19.602Z,9.49
2019-02-21T11:22:48.753Z,9.31
2019-02-21T11:25:17.884Z,9.42
2019-02-21T11:27:47.076Z,9.40
2019-02-21T11:30:17.692Z,9.47
2019-02-21T11:32:46.880Z,9.36
2019-02-21T11:35:15.973Z,9.22
2019-02-21T11:37:47.096Z,9.18
2019-02-21T11:40:16.906Z,9.23
2019-02-21T11:42:46.632Z,9.21
2019-02-21T11:45:16.556Z,9.24
2019-02-21T11:47:45.689Z,9.27
2019-02-21T11:50:16.178Z,9.29
2019-02-21T11:52:45.635Z,9.26
2019-02-21T11:55:17.745Z,9.26
2019-02-21T11:57:46.945Z,9.25
2019-02-21T12:00:39.149Z,9.42
2019-02-21T12:03:08.298Z,9.46
2019-02-21T12:05:37.402Z,9.46
2019-02-21T12:08:06.525Z,9.55
2019-02-21T12:10:35.655Z,9.38
2019-02-21T12:13:05.094Z,9.35
2019-02-21T12:15:34.395Z,9.45
2019-02-21T12:18:03.570Z,9.30
2019-02-21T12:20:32.664Z,9.52
2019-02-21T12:23:01.783Z,9.45
2019-02-21T12:25:31.289Z,9.36
2019-02-21T12:28:00.414Z,9.39
2019-02-21T12:30:29.611Z,9.31
2019-02-21T12:32:58.741Z,9.35
2019-02-21T12:35:29.805Z,9.29
2019-02-21T12:37:59.036Z,9.31
2019-02-21T12:40:28.145Z,9.42
2019-02-21T12:42:57.467Z,9.32
2019-02-21T12:45:26.573Z,9.49
2019-02-21T12:47:55.705Z,9.35
2019-02-21T12:50:24.803Z,9.34
2019-02-21T12:52:54.055Z,9.36
2019-02-21T12:55:29.353Z,9.33
2019-02-21T12:57:54.056Z,9.38
2019-02-21T13:00:23.452Z,9.35
2019-02-21T13:02:52.569Z,9.24
2019-02-21T13:05:22.071Z,9.46
2019-02-21T13:07:51.195Z,9.43
2019-02-21T13:10:22.969Z,9.69
2019-02-21T13:12:52.213Z,9.59
2019-02-21T13:15:24.923Z,9.70
2019-02-21T13:17:54.012Z,9.76
2019-02-21T13:20:23.237Z,9.85
2019-02-21T13:22:52.976Z,9.94
2019-02-21T13:25:22.073Z,10.08
2019-02-21T13:27:51.216Z,10.02
2019-02-21T13:30:20.323Z,10.27
2019-02-21T13:32:49.495Z,10.35
2019-02-21T13:35:18.613Z,10.15
2019-02-21T13:37:48.824Z,10.10
2019-02-21T13:40:20.937Z,10.11
2019-02-21T13:42:49.420Z,10.11
2019-02-21T13:45:18.865Z,10.18
2019-02-21T13:47:48.003Z,10.18
2019-02-21T13:50:17.638Z,10.32
2019-02-21T13:52:47.146Z,10.39
2019-02-21T13:55:16.583Z,10.30
2019-02-21T13:57:45.741Z,10.35
2019-02-21T14:00:17.150Z,10.29
2019-02-21T14:02:46.839Z,10.21
2019-02-21T14:05:16.005Z,10.31
2019-02-21T14:07:45.337Z,10.37
2019-02-21T14:10:15.184Z,10.14
2019-02-21T14:12:44.339Z,10.35
2019-02-21T14:15:16.010Z,10.35
2019-02-21T14:17:46.681Z,10.39
2019-02-21T14:20:16.544Z,10.44
2019-02-21T14:22:45.713Z,10.41
2019-02-21T14:25:15.080Z,10.44
2019-02-21T14:27:44.257Z,10.48
2019-02-21T14:30:15.616Z,10.51
2019-02-21T14:32:45.961Z,10.48
2019-02-21T14:35:16.025Z,10.61
2019-02-21T14:37:45.147Z,10.59
2019-02-21T14:40:14.574Z,10.53
2019-02-21T14:42:45.114Z,10.48
2019-02-21T14:45:16.186Z,10.49
2019-02-21T14:47:45.333Z,10.49
2019-02-21T14:50:16.110Z,10.43
2019-02-21T14:52:45.556Z,10.53
2019-02-21T14:55:15.283Z,10.47
2019-02-21T14:57:44.409Z,10.30
2019-02-21T15:00:19.816Z,10.27
2019-02-21T15:02:48.953Z,10.17
2019-02-21T15:05:19.143Z,10.31
2019-02-21T15:07:48.821Z,10.23
2019-02-21T15:10:18.508Z,10.32
2019-02-21T15:12:48.373Z,10.29
2019-02-21T15:15:18.258Z,10.27
2019-02-21T15:17:47.773Z,10.23
2019-02-21T15:20:17.378Z,10.37
2019-02-21T15:22:46.905Z,10.40
2019-02-21T15:25:16.045Z,10.27
2019-02-21T15:27:45.138Z,10.17
2019-02-21T15:30:16.343Z,10.17
2019-02-21T15:32:45.436Z,9.91
2019-02-21T15:35:14.896Z,9.92
2019-02-21T15:37:45.207Z,9.87
2019-02-21T15:40:14.678Z,9.83
2019-02-21T15:42:43.870Z,9.82
2019-02-21T15:45:23.016Z,9.75
2019-02-21T15:47:45.890Z,9.56
2019-02-21T15:50:15.181Z,9.53
2019-02-21T15:52:44.647Z,9.49
2019-02-21T15:55:14.733Z,9.49
2019-02-21T15:57:43.869Z,9.56
2019-02-21T16:00:15.182Z,9.56
2019-02-21T16:02:44.271Z,9.50
2019-02-21T16:05:13.797Z,9.47
2019-02-21T16:07:42.914Z,9.47
2019-02-21T16:10:14.293Z,9.51
2019-02-21T16:12:43.886Z,9.50
2019-02-21T16:15:16.165Z,9.41
2019-02-21T16:17:44.489Z,9.44
2019-02-21T16:20:14.478Z,9.34
2019-02-21T16:22:44.157Z,9.31
2019-02-21T16:25:15.476Z,9.35
2019-02-21T16:27:44.574Z,9.27
2019-02-21T16:30:14.267Z,9.37
2019-02-21T16:32:43.522Z,9.35
2019-02-21T16:35:12.779Z,9.27
2019-02-21T16:37:42.120Z,9.27
2019-02-21T16:40:12.406Z,9.25
2019-02-21T16:42:41.633Z,9.20
2019-02-21T16:45:12.029Z,9.38
2019-02-21T16:47:41.129Z,9.40
2019-02-21T16:50:11.160Z,9.40
2019-02-21T16:52:40.300Z,9.28
2019-02-21T16:55:11.480Z,9.37
2019-02-21T16:57:40.617Z,9.38
2019-02-21T17:00:11.205Z,9.13
2019-02-21T17:02:40.312Z,9.38
2019-02-21T17:05:09.859Z,9.29
2019-02-21T17:07:38.968Z,9.28
2019-02-21T17:10:08.611Z,9.34
2019-02-21T17:12:37.722Z,9.22
2019-02-21T17:15:08.131Z,9.27
2019-02-21T17:17:37.532Z,9.35
2019-02-21T17:20:08.244Z,9.34
2019-02-21T17:22:37.390Z,9.23
2019-02-21T17:25:06.951Z,9.07
2019-02-21T17:27:36.101Z,9.24
2019-02-21T17:30:05.750Z,9.20
2019-02-21T17:32:34.862Z,9.11
2019-02-21T17:35:04.452Z,9.08
2019-02-21T17:37:33.562Z,9.16
2019-02-21T17:40:02.775Z,9.27
2019-02-21T17:42:31.926Z,9.29
2019-02-21T17:45:03.301Z,9.29
2019-02-21T17:47:36.142Z,9.34
2019-02-21T17:50:06.057Z,9.36
2019-02-21T17:52:36.107Z,9.33
2019-02-21T17:55:05.655Z,9.39
2019-02-21T17:57:36.931Z,9.30
2019-02-21T18:00:07.922Z,9.22
2019-02-21T18:02:37.490Z,9.19
2019-02-21T18:05:06.926Z,9.35
2019-02-21T18:07:36.798Z,9.36
2019-02-21T18:10:07.739Z,9.37
2019-02-21T18:12:36.978Z,9.35
2019-02-21T18:15:06.384Z,9.40
2019-02-21T18:17:35.516Z,9.45
2019-02-21T18:20:05.066Z,9.30
2019-02-21T18:22:34.167Z,9.30
2019-02-21T18:25:03.824Z,9.28
2019-02-21T18:27:34.683Z,9.36
2019-02-21T18:30:04.020Z,9.43
2019-02-21T18:32:33.119Z,9.40
2019-02-21T18:35:02.307Z,9.48
2019-02-21T18:37:31.401Z,9.43
2019-02-21T18:40:00.548Z,9.51
2019-02-21T18:42:29.665Z,9.43
2019-02-21T18:44:58.756Z,9.35
2019-02-21T18:47:28.199Z,9.30
2019-02-21T18:49:57.431Z,9.33
2019-02-21T18:52:26.585Z,9.16
2019-02-21T18:54:55.728Z,9.34
2019-02-21T18:57:25.128Z,9.35
2019-02-21T18:59:54.439Z,9.24
2019-02-21T19:02:23.638Z,9.43
2019-02-21T19:04:52.907Z,9.43
2019-02-21T19:07:22.102Z,9.36
2019-02-21T19:09:51.275Z,9.47
2019-02-21T19:12:20.445Z,9.50
2019-02-21T19:14:50.155Z,9.38
2019-02-21T19:17:19.242Z,9.34
2019-02-21T19:19:48.367Z,9.36
2019-02-21T19:22:18.102Z,9.44
2019-02-21T19:24:47.343Z,9.44
2019-02-21T19:27:17.255Z,9.40
2019-02-21T19:29:46.731Z,9.45
2019-02-21T19:32:15.956Z,9.31
2019-02-21T19:34:45.131Z,9.34
2019-02-21T19:37:14.451Z,9.34
2019-02-21T19:39:44.277Z,9.29
2019-02-21T19:42:13.490Z,9.25
2019-02-21T19:44:42.678Z,9.25
2019-02-21T19:47:11.884Z,9.19
2019-02-21T19:49:41.468Z,9.35
2019-02-21T19:52:10.660Z,9.22
2019-02-21T19:54:39.855Z,9.19
2019-02-21T19:57:09.010Z,9.14
2019-02-21T19:59:38.373Z,9.12
2019-02-21T20:02:08.169Z,9.11
2019-02-21T20:04:37.318Z,9.13
2019-02-21T20:07:06.562Z,9.25
2019-02-21T20:09:35.728Z,9.05
2019-02-21T20:12:05.033Z,9.05
2019-02-21T20:14:34.187Z,9.11
2019-02-21T20:17:03.334Z,9.08
2019-02-21T20:19:32.659Z,9.04
2019-02-21T20:22:01.754Z,9.04
2019-02-21T20:24:30.898Z,8.99
2019-02-21T20:27:00.508Z,8.87
2019-02-21T20:29:29.696Z,8.87
2019-02-21T20:31:59.074Z,8.96
2019-02-21T20:34:28.295Z,8.92
2019-02-21T20:36:57.556Z,8.86
2019-02-21T20:39:26.931Z,8.81
2019-02-21T20:41:56.318Z,8.81
2019-02-21T20:44:25.438Z,8.76
2019-02-21T20:46:54.571Z,8.72
2019-02-21T20:49:23.880Z,8.72
2019-02-21T20:51:53.063Z,8.70
2019-02-21T20:54:22.336Z,8.75
2019-02-21T20:56:51.612Z,8.69
2019-02-21T20:59:20.722Z,8.69
2019-02-21T21:01:50.236Z,8.74
2019-02-21T21:04:19.356Z,8.65
2019-02-21T21:06:48.522Z,8.76
2019-02-21T21:09:17.778Z,8.76
2019-02-21T21:11:46.921Z,8.69
2019-02-21T21:14:16.007Z,8.66
2019-02-21T21:16:46.252Z,8.66
2019-02-21T21:19:15.423Z,8.66
2019-02-21T21:21:44.739Z,8.65
2019-02-21T21:24:14.334Z,8.65
2019-02-21T21:26:43.873Z,8.57
2019-02-21T21:29:12.979Z,8.66
2019-02-21T21:31:42.105Z,8.61
2019-02-21T21:34:11.212Z,8.54
2019-02-21T21:36:40.348Z,8.67
2019-02-21T21:39:09.847Z,8.67
2019-02-21T21:41:39.063Z,8.60
2019-02-21T21:44:08.254Z,8.46
2019-02-21T21:46:37.375Z,8.46
2019-02-21T21:49:06.532Z,8.60
2019-02-21T21:51:35.631Z,8.55
2019-02-21T21:54:04.801Z,8.46
2019-02-21T21:56:33.924Z,8.53
2019-02-21T21:59:03.084Z,8.42
2019-02-21T22:01:32.242Z,8.42
2019-02-21T22:04:01.347Z,8.46
2019-02-21T22:06:30.511Z,8.39
2019-02-21T22:09:04.644Z,8.41
2019-02-21T22:11:31.244Z,8.44
2019-02-21T22:14:00.681Z,8.44
2019-02-21T22:16:29.832Z,8.36
2019-02-21T22:18:58.940Z,8.41
2019-02-21T22:21:28.295Z,8.41
2019-02-21T22:23:57.452Z,8.28
2019-02-21T22:26:26.601Z,8.37
2019-02-21T22:28:55.724Z,8.46
2019-02-21T22:31:24.883Z,8.39
2019-02-21T22:33:54.180Z,8.46
2019-02-21T22:36:23.336Z,8.33
2019-02-21T22:38:52.447Z,8.36
2019-02-21T22:41:21.599Z,8.29
2019-02-21T22:43:50.718Z,8.29
2019-02-21T22:46:19.854Z,8.28
2019-02-21T22:48:49.145Z,8.30
2019-02-21T22:51:18.351Z,8.27
2019-02-21T22:53:47.446Z,8.22
2019-02-21T22:56:16.606Z,8.23
2019-02-21T22:58:45.802Z,8.23
2019-02-21T23:01:42.386Z,8.24
2019-02-21T23:04:48.605Z,8.21
2019-02-21T23:08:04.810Z,8.20
2019-02-21T23:10:33.943Z,8.17
2019-02-21T23:13:03.227Z,8.17
2019-02-21T23:15:32.358Z,8.17
2019-02-21T23:18:01.646Z,8.08
2019-02-21T23:20:30.756Z,8.10
2019-02-21T23:22:59.897Z,8.16
2019-02-21T23:25:29.024Z,8.20
2019-02-21T23:27:58.367Z,8.17
2019-02-21T23:30:27.475Z,8.13
2019-02-21T23:32:56.661Z,8.13
2019-02-21T23:35:25.789Z,8.20
2019-02-21T23:37:55.268Z,8.24
2019-02-21T23:40:24.396Z,8.24
2019-02-21T23:43:20.581Z,8.13
2019-02-21T23:45:49.704Z,8.12
2019-02-21T23:48:18.913Z,8.11
2019-02-21T23:50:48.023Z,8.18
2019-02-21T23:53:17.173Z,8.11
2019-02-21T23:55:46.285Z,8.11
2019-02-21T23:58:15.501Z,8.21
